createdAt,value
2023-03-29T00:00:31.076Z,0
2023-03-29T00:01:52.194Z,0
2023-03-29T00:03:40.059Z,0
2023-03-29T00:04:41.492Z,0
2023-03-29T00:05:41.076Z,0
2023-03-29T00:06:42.076Z,0
2023-03-29T00:07:43.016Z,0
2023-03-29T00:08:43.616Z,0
2023-03-29T00:09:44.461Z,0
2023-03-29T00:10:45.623Z,0
2023-03-29T00:11:45.712Z,0
2023-03-29T00:12:46.360Z,0
2023-03-29T00:13:47.273Z,0
2023-03-29T00:14:48.202Z,0
2023-03-29T00:15:48.909Z,0
2023-03-29T00:16:50.081Z,0
2023-03-29T00:17:50.102Z,0
2023-03-29T00:18:50.817Z,0
2023-03-29T00:19:51.520Z,0
2023-03-29T00:20:52.044Z,0
2023-03-29T00:21:52.756Z,0
2023-03-29T00:22:53.766Z,0
2023-03-29T00:23:53.854Z,0
2023-03-29T00:24:54.368Z,0
2023-03-29T00:25:55.598Z,0
2023-03-29T00:26:54.886Z,0
2023-03-29T00:27:55.029Z,0
2023-03-29T00:28:55.910Z,0
2023-03-29T00:29:56.503Z,0
2023-03-29T00:30:57.234Z,0
2023-03-29T00:31:57.982Z,0
2023-03-29T00:32:58.485Z,0
2023-03-29T00:33:59.010Z,0
2023-03-29T00:34:59.903Z,0
2023-03-29T00:36:00.960Z,0
2023-03-29T00:37:01.344Z,0
2023-03-29T00:38:01.934Z,0
2023-03-29T00:39:03.032Z,0
2023-03-29T00:40:03.331Z,0
2023-03-29T00:41:04.781Z,0
2023-03-29T00:42:04.868Z,0
2023-03-29T00:43:05.701Z,0
2023-03-29T00:44:05.991Z,0
2023-03-29T00:45:06.683Z,0
2023-03-29T00:46:07.455Z,0
2023-03-29T00:47:08.432Z,0
2023-03-29T00:48:09.513Z,0
2023-03-29T00:49:09.450Z,0
2023-03-29T00:50:10.133Z,0
2023-03-29T00:51:13.959Z,0
2023-03-29T00:52:11.863Z,0
2023-03-29T00:53:12.680Z,0
2023-03-29T00:54:13.565Z,0
2023-03-29T00:55:14.058Z,0
2023-03-29T00:56:14.845Z,0
2023-03-29T00:57:15.877Z,0
2023-03-29T00:58:17.008Z,0
2023-03-29T00:59:16.897Z,0
2023-03-29T01:00:17.611Z,0
2023-03-29T01:01:18.826Z,0
2023-03-29T01:02:18.951Z,0
2023-03-29T01:03:19.855Z,0
2023-03-29T01:04:19.976Z,0
2023-03-29T01:05:20.677Z,0
2023-03-29T01:06:21.211Z,0
2023-03-29T01:07:22.216Z,0
2023-03-29T01:08:22.798Z,0
2023-03-29T01:09:22.964Z,0
2023-03-29T01:10:24.059Z,0
2023-03-29T01:11:24.006Z,0
2023-03-29T01:12:24.332Z,0
2023-03-29T01:13:25.151Z,0
2023-03-29T01:14:26.063Z,0
2023-03-29T01:15:26.603Z,0
2023-03-29T01:16:27.817Z,0
2023-03-29T01:17:27.776Z,0
2023-03-29T01:18:28.558Z,0
2023-03-29T01:19:28.843Z,0
2023-03-29T01:20:28.930Z,0
2023-03-29T01:21:30.438Z,0
2023-03-29T01:22:31.132Z,0
2023-03-29T01:23:31.403Z,0
2023-03-29T01:24:31.941Z,0
2023-03-29T01:25:32.868Z,0
2023-03-29T01:26:33.843Z,0
2023-03-29T01:27:34.580Z,0
2023-03-29T01:28:34.948Z,0
2023-03-29T01:29:35.835Z,0
2023-03-29T01:30:36.381Z,0
2023-03-29T01:31:37.095Z,0
2023-03-29T01:32:37.850Z,0
2023-03-29T01:33:38.137Z,0
2023-03-29T01:34:38.406Z,0
2023-03-29T01:35:38.798Z,0
2023-03-29T01:36:39.556Z,0
2023-03-29T01:37:40.297Z,0
2023-03-29T01:38:41.043Z,0
2023-03-29T01:39:41.779Z,0
2023-03-29T01:40:42.716Z,0
2023-03-29T01:41:43.659Z,0
2023-03-29T01:42:44.358Z,0
2023-03-29T01:43:44.878Z,0
2023-03-29T01:44:45.368Z,0
2023-03-29T01:45:46.567Z,0
2023-03-29T01:46:46.752Z,0
2023-03-29T01:47:46.749Z,0
2023-03-29T01:48:47.451Z,0
2023-03-29T01:49:48.151Z,0
2023-03-29T01:50:48.879Z,0
2023-03-29T01:51:49.414Z,0
2023-03-29T01:52:49.927Z,0
2023-03-29T01:53:50.891Z,0
2023-03-29T01:54:51.404Z,0
2023-03-29T01:55:52.136Z,0
2023-03-29T01:56:53.708Z,0
2023-03-29T01:57:53.276Z,0
2023-03-29T01:58:54.242Z,0
2023-03-29T01:59:55.130Z,0
2023-03-29T02:00:55.668Z,0
2023-03-29T02:01:56.657Z,0
2023-03-29T02:02:57.918Z,0
2023-03-29T02:03:58.908Z,0
2023-03-29T02:04:58.416Z,0
2023-03-29T02:05:58.913Z,0
2023-03-29T02:06:59.405Z,0
2023-03-29T02:08:00.248Z,0
2023-03-29T02:09:00.642Z,0
2023-03-29T02:10:01.331Z,0
2023-03-29T02:11:02.007Z,0
2023-03-29T02:12:03.122Z,0
2023-03-29T02:13:03.212Z,0
2023-03-29T02:14:05.053Z,0
2023-03-29T02:15:04.356Z,0
2023-03-29T02:16:05.505Z,0
2023-03-29T02:17:05.283Z,0
2023-03-29T02:18:06.300Z,0
2023-03-29T02:19:06.090Z,0
2023-03-29T02:20:06.472Z,0
2023-03-29T02:21:07.286Z,0
2023-03-29T02:22:07.824Z,0
2023-03-29T02:23:08.543Z,0
2023-03-29T02:24:09.002Z,0
2023-03-29T02:25:10.302Z,0
2023-03-29T02:26:10.220Z,0
2023-03-29T02:27:10.425Z,0
2023-03-29T02:28:10.513Z,0
2023-03-29T02:29:11.234Z,0
2023-03-29T02:30:11.960Z,0
2023-03-29T02:31:13.454Z,0
2023-03-29T02:32:12.942Z,0
2023-03-29T02:33:13.967Z,0
2023-03-29T02:34:14.690Z,0
2023-03-29T02:35:14.967Z,0
2023-03-29T02:36:15.768Z,0
2023-03-29T02:37:16.773Z,0
2023-03-29T02:38:16.065Z,0
2023-03-29T02:39:17.012Z,0
2023-03-29T02:40:17.140Z,0
2023-03-29T02:41:18.304Z,0
2023-03-29T02:42:18.505Z,0
2023-03-29T02:43:18.224Z,0
2023-03-29T02:44:18.676Z,0
2023-03-29T02:45:19.172Z,0
2023-03-29T02:46:19.994Z,0
2023-03-29T02:47:20.536Z,0
2023-03-29T02:48:21.271Z,0
2023-03-29T02:49:22.193Z,0
2023-03-29T02:50:22.698Z,0
2023-03-29T02:51:25.226Z,0
2023-03-29T02:52:24.104Z,0
2023-03-29T02:53:24.399Z,0
2023-03-29T02:54:25.004Z,0
2023-03-29T02:55:25.698Z,0
2023-03-29T02:56:26.374Z,0
2023-03-29T02:57:27.729Z,0
2023-03-29T02:58:26.862Z,0
2023-03-29T02:59:27.395Z,0
2023-03-29T03:00:27.677Z,0
2023-03-29T03:01:28.944Z,0
2023-03-29T03:02:30.225Z,0
2023-03-29T03:03:30.399Z,0
2023-03-29T03:04:30.989Z,0
2023-03-29T03:05:31.691Z,0
2023-03-29T03:06:32.209Z,0
2023-03-29T03:07:32.674Z,0
2023-03-29T03:08:33.601Z,0
2023-03-29T03:09:34.147Z,0
2023-03-29T03:10:34.466Z,0
2023-03-29T03:11:35.148Z,0
2023-03-29T03:12:36.160Z,0
2023-03-29T03:13:36.060Z,0
2023-03-29T03:14:36.470Z,0
2023-03-29T03:15:36.988Z,0
2023-03-29T03:16:37.925Z,0
2023-03-29T03:17:38.689Z,0
2023-03-29T03:18:39.808Z,0
2023-03-29T03:19:40.315Z,0
2023-03-29T03:20:41.063Z,0
2023-03-29T03:21:41.733Z,0
2023-03-29T03:22:42.280Z,0
2023-03-29T03:23:42.985Z,0
2023-03-29T03:24:43.465Z,0
2023-03-29T03:25:43.965Z,0
2023-03-29T03:26:44.653Z,0
2023-03-29T03:27:45.632Z,0
2023-03-29T03:28:45.656Z,0
2023-03-29T03:29:46.405Z,0
2023-03-29T03:30:47.525Z,0
2023-03-29T03:31:48.074Z,0
2023-03-29T03:32:49.179Z,0
2023-03-29T03:33:49.542Z,0
2023-03-29T03:34:50.345Z,0
2023-03-29T03:35:51.224Z,0
2023-03-29T03:36:52.708Z,0
2023-03-29T03:37:52.413Z,0
2023-03-29T03:38:52.952Z,0
2023-03-29T03:39:54.207Z,0
2023-03-29T03:40:53.768Z,0
2023-03-29T03:41:54.469Z,0
2023-03-29T03:42:55.461Z,0
2023-03-29T03:43:56.348Z,0
2023-03-29T03:44:56.994Z,0
2023-03-29T03:45:58.101Z,0
2023-03-29T03:46:58.625Z,0
2023-03-29T03:47:59.529Z,0
2023-03-29T03:49:00.453Z,0
2023-03-29T03:50:00.759Z,0
2023-03-29T03:51:01.190Z,0
2023-03-29T03:52:03.418Z,0
2023-03-29T03:53:02.330Z,0
2023-03-29T03:54:02.032Z,0
2023-03-29T03:55:03.127Z,0
2023-03-29T03:56:03.627Z,0
2023-03-29T03:57:04.315Z,0
2023-03-29T03:58:05.383Z,0
2023-03-29T03:59:05.951Z,0
2023-03-29T04:00:06.675Z,0
2023-03-29T04:01:07.441Z,0
2023-03-29T04:02:08.424Z,0
2023-03-29T04:03:08.802Z,0
2023-03-29T04:04:09.229Z,0
2023-03-29T04:05:09.718Z,0
2023-03-29T04:06:10.420Z,0
2023-03-29T04:07:10.910Z,0
2023-03-29T04:08:11.808Z,0
2023-03-29T04:09:12.111Z,0
2023-03-29T04:10:12.945Z,0
2023-03-29T04:11:14.130Z,0
2023-03-29T04:12:14.058Z,0
2023-03-29T04:13:14.922Z,0
2023-03-29T04:14:15.827Z,0
2023-03-29T04:15:16.454Z,0
2023-03-29T04:16:18.592Z,0
2023-03-29T04:17:17.494Z,0
2023-03-29T04:18:18.980Z,0
2023-03-29T04:19:18.727Z,0
2023-03-29T04:20:19.235Z,0
2023-03-29T04:21:21.396Z,0
2023-03-29T04:22:20.386Z,0
2023-03-29T04:23:21.542Z,0
2023-03-29T04:24:22.447Z,0
2023-03-29T04:25:23.073Z,0
2023-03-29T04:26:23.560Z,0
2023-03-29T04:27:23.882Z,0
2023-03-29T04:28:25.040Z,0
2023-03-29T04:29:25.131Z,0
2023-03-29T04:30:25.881Z,0
2023-03-29T04:31:27.076Z,0
2023-03-29T04:32:27.199Z,0
2023-03-29T04:33:26.773Z,0
2023-03-29T04:34:27.532Z,0
2023-03-29T04:35:27.934Z,0
2023-03-29T04:36:28.424Z,0
2023-03-29T04:37:28.908Z,0
2023-03-29T04:38:29.841Z,0
2023-03-29T04:39:30.785Z,0
2023-03-29T04:40:31.829Z,0
2023-03-29T04:41:31.436Z,0
2023-03-29T04:42:32.142Z,0
2023-03-29T04:43:33.099Z,0
2023-03-29T04:44:33.873Z,0
2023-03-29T04:45:34.592Z,0
2023-03-29T04:46:34.592Z,0
2023-03-29T04:47:35.683Z,0
2023-03-29T04:48:36.384Z,0
2023-03-29T04:49:37.075Z,0
2023-03-29T04:50:37.809Z,0
2023-03-29T04:51:38.859Z,0
2023-03-29T04:52:40.848Z,0
2023-03-29T04:53:39.816Z,0
2023-03-29T04:54:40.855Z,0
2023-03-29T04:55:41.675Z,0
2023-03-29T04:56:41.966Z,0
2023-03-29T04:57:42.823Z,0
2023-03-29T04:58:48.653Z,0
2023-03-29T04:59:44.414Z,0
2023-03-29T05:00:45.154Z,0
2023-03-29T05:01:46.277Z,0
2023-03-29T05:02:46.717Z,0
2023-03-29T05:03:47.063Z,0
2023-03-29T05:04:47.970Z,0
2023-03-29T05:05:48.608Z,0
2023-03-29T05:06:48.354Z,0
2023-03-29T05:07:49.294Z,0
2023-03-29T05:08:50.345Z,0
2023-03-29T05:09:51.598Z,0
2023-03-29T05:10:51.528Z,0
2023-03-29T05:11:52.459Z,0
2023-03-29T05:12:52.145Z,0
2023-03-29T05:13:53.421Z,0
2023-03-29T05:14:52.731Z,0
2023-03-29T05:15:54.784Z,0
2023-03-29T05:16:53.633Z,0
2023-03-29T05:17:54.582Z,0
2023-03-29T05:18:55.348Z,0
2023-03-29T05:19:56.048Z,0
2023-03-29T05:20:56.821Z,0
2023-03-29T05:22:00.146Z,0
2023-03-29T05:22:57.911Z,0
2023-03-29T05:23:58.424Z,0
2023-03-29T05:24:59.562Z,0
2023-03-29T05:25:59.892Z,0
2023-03-29T05:27:00.592Z,0
2023-03-29T05:28:01.516Z,0
2023-03-29T05:29:01.777Z,0
2023-03-29T05:30:02.489Z,0
2023-03-29T05:31:03.379Z,0
2023-03-29T05:32:04.316Z,0
2023-03-29T05:33:05.834Z,0
2023-03-29T05:34:05.432Z,0
2023-03-29T05:35:06.138Z,0
2023-03-29T05:36:07.018Z,0
2023-03-29T05:37:07.327Z,0
2023-03-29T05:38:08.009Z,0
2023-03-29T05:39:08.674Z,0
2023-03-29T05:40:21.663Z,0
2023-03-29T05:42:10.934Z,0
2023-03-29T05:43:11.428Z,0
2023-03-29T05:44:12.277Z,0
2023-03-29T05:45:12.775Z,0
2023-03-29T05:46:14.592Z,0
2023-03-29T05:47:14.502Z,0
2023-03-29T05:48:15.141Z,0
2023-03-29T05:49:15.970Z,0
2023-03-29T05:50:16.462Z,0
2023-03-29T05:51:17.785Z,5.63
2023-03-29T05:52:18.717Z,5.63
2023-03-29T05:53:19.420Z,0
2023-03-29T05:54:19.983Z,0
2023-03-29T05:55:21.157Z,0
2023-03-29T05:56:21.263Z,0
2023-03-29T05:57:22.059Z,0
2023-03-29T05:58:22.977Z,0
2023-03-29T05:59:23.946Z,0
2023-03-29T06:00:23.523Z,0
2023-03-29T06:01:24.276Z,0
2023-03-29T06:02:25.478Z,5.63
2023-03-29T06:03:37.348Z,5.63
2023-03-29T06:04:26.237Z,5.63
2023-03-29T06:05:27.287Z,5.63
2023-03-29T06:06:27.993Z,5.63
2023-03-29T06:07:28.504Z,5.63
2023-03-29T06:08:28.601Z,5.63
2023-03-29T06:09:29.102Z,5.63
2023-03-29T06:10:30.042Z,5.63
2023-03-29T06:11:30.604Z,5.63
2023-03-29T06:12:31.304Z,5.63
2023-03-29T06:13:32.035Z,5.63
2023-03-29T06:14:33.031Z,11.25
2023-03-29T06:15:33.762Z,11.25
2023-03-29T06:16:34.451Z,11.25
2023-03-29T06:17:35.182Z,11.25
2023-03-29T06:18:36.140Z,11.25
2023-03-29T06:19:37.040Z,11.25
2023-03-29T06:20:37.998Z,11.25
2023-03-29T06:21:38.689Z,11.25
2023-03-29T06:22:39.620Z,11.25
2023-03-29T06:23:40.825Z,11.25
2023-03-29T06:24:41.113Z,11.25
2023-03-29T06:25:41.029Z,11.25
2023-03-29T06:26:41.693Z,16.88
2023-03-29T06:27:41.394Z,16.88
2023-03-29T06:28:41.923Z,16.88
2023-03-29T06:29:43.101Z,16.88
2023-03-29T06:30:43.675Z,16.88
2023-03-29T06:31:43.826Z,16.88
2023-03-29T06:32:45.206Z,16.88
2023-03-29T06:33:45.187Z,16.88
2023-03-29T06:34:49.301Z,16.88
2023-03-29T06:35:45.238Z,16.88
2023-03-29T06:36:46.172Z,16.88
2023-03-29T06:37:46.695Z,16.88
2023-03-29T06:38:47.412Z,16.88
2023-03-29T06:39:48.096Z,16.88
2023-03-29T06:40:48.818Z,16.88
2023-03-29T06:41:49.771Z,16.88
2023-03-29T06:42:50.296Z,16.88
2023-03-29T06:43:51.134Z,16.88
2023-03-29T06:44:52.486Z,16.88
2023-03-29T06:45:52.257Z,16.88
2023-03-29T06:46:52.765Z,22.5
2023-03-29T06:47:53.783Z,22.5
2023-03-29T06:48:54.490Z,22.5
2023-03-29T06:49:54.994Z,16.88
2023-03-29T06:50:56.101Z,16.88
2023-03-29T06:51:55.860Z,16.88
2023-03-29T06:52:56.348Z,16.88
2023-03-29T06:53:57.256Z,16.88
2023-03-29T06:54:58.370Z,16.88
2023-03-29T06:55:59.070Z,16.88
2023-03-29T06:57:00.364Z,16.88
2023-03-29T06:58:01.786Z,16.88
2023-03-29T06:59:00.513Z,16.88
2023-03-29T07:00:02.073Z,16.88
2023-03-29T07:01:02.911Z,22.5
2023-03-29T07:02:02.820Z,22.5
2023-03-29T07:03:04.068Z,22.5
2023-03-29T07:04:03.960Z,22.5
2023-03-29T07:05:04.998Z,16.88
2023-03-29T07:06:05.500Z,16.88
2023-03-29T07:07:07.252Z,16.88
2023-03-29T07:08:07.146Z,16.88
2023-03-29T07:09:08.060Z,22.5
2023-03-29T07:10:08.987Z,22.5
2023-03-29T07:11:10.310Z,22.5
2023-03-29T07:12:10.472Z,22.5
2023-03-29T07:13:10.295Z,22.5
2023-03-29T07:14:11.385Z,22.5
2023-03-29T07:15:12.525Z,22.5
2023-03-29T07:16:13.033Z,22.5
2023-03-29T07:17:13.011Z,22.5
2023-03-29T07:18:14.568Z,22.5
2023-03-29T07:19:14.080Z,28.13
2023-03-29T07:20:15.028Z,28.13
2023-03-29T07:21:15.990Z,28.13
2023-03-29T07:22:16.908Z,28.13
2023-03-29T07:23:17.920Z,28.13
2023-03-29T07:24:18.695Z,33.75
2023-03-29T07:25:19.580Z,33.75
2023-03-29T07:26:33.951Z,28.13
2023-03-29T07:28:22.991Z,33.75
2023-03-29T07:29:23.973Z,33.75
2023-03-29T07:30:25.412Z,33.75
2023-03-29T07:31:25.379Z,39.38
2023-03-29T07:32:25.496Z,39.38
2023-03-29T07:33:25.993Z,39.38
2023-03-29T07:34:25.396Z,39.38
2023-03-29T07:35:26.291Z,33.75
2023-03-29T07:36:27.304Z,28.13
2023-03-29T07:37:28.157Z,33.75
2023-03-29T07:38:28.299Z,33.75
2023-03-29T07:39:28.207Z,33.75
2023-03-29T07:40:29.309Z,39.38
2023-03-29T07:41:30.286Z,39.38
2023-03-29T07:42:31.219Z,39.38
2023-03-29T07:43:31.538Z,39.38
2023-03-29T07:44:32.280Z,33.75
2023-03-29T07:45:39.422Z,33.75
2023-03-29T07:48:34.561Z,33.75
2023-03-29T07:49:38.695Z,33.75
2023-03-29T07:50:35.784Z,33.75
2023-03-29T07:51:35.776Z,39.38
2023-03-29T07:52:36.385Z,39.38
2023-03-29T07:53:37.298Z,39.38
2023-03-29T07:54:38.262Z,39.38
2023-03-29T07:55:38.961Z,39.38
2023-03-29T07:56:39.469Z,39.38
2023-03-29T07:57:40.541Z,39.38
2023-03-29T07:58:40.071Z,39.38
2023-03-29T07:59:40.965Z,39.38
2023-03-29T08:00:42.474Z,39.38
2023-03-29T08:01:42.744Z,39.38
2023-03-29T08:02:42.849Z,39.38
2023-03-29T08:03:42.914Z,39.38
2023-03-29T08:04:44.045Z,45
2023-03-29T08:05:57.036Z,45
2023-03-29T08:08:45.408Z,56.25
2023-03-29T08:09:46.595Z,56.25
2023-03-29T08:10:47.585Z,61.88
2023-03-29T08:11:48.387Z,61.88
2023-03-29T08:12:49.335Z,61.88
2023-03-29T08:13:50.035Z,61.88
2023-03-29T08:14:50.780Z,61.88
2023-03-29T08:15:51.795Z,61.88
2023-03-29T08:16:52.128Z,56.25
2023-03-29T08:17:51.998Z,50.63
2023-03-29T08:18:52.160Z,45
2023-03-29T08:20:02.785Z,45
2023-03-29T08:20:53.853Z,45
2023-03-29T08:21:54.807Z,45
2023-03-29T08:22:54.904Z,45
2023-03-29T08:23:54.813Z,50.63
2023-03-29T08:24:55.533Z,50.63
2023-03-29T08:25:56.695Z,56.25
2023-03-29T08:26:56.012Z,56.25
2023-03-29T08:27:57.825Z,56.25
2023-03-29T08:28:57.956Z,61.88
2023-03-29T08:29:58.236Z,61.88
2023-03-29T08:30:59.596Z,67.5
2023-03-29T08:31:59.692Z,73.13
2023-03-29T08:33:06.037Z,73.13
2023-03-29T08:34:01.125Z,78.75
2023-03-29T08:35:01.869Z,73.13
2023-03-29T08:36:02.976Z,73.13
2023-03-29T08:37:03.149Z,78.75
2023-03-29T08:38:02.895Z,78.75
2023-03-29T08:39:03.638Z,73.13
2023-03-29T08:40:04.823Z,73.13
2023-03-29T08:41:04.913Z,73.13
2023-03-29T08:42:05.898Z,67.5
2023-03-29T08:43:06.646Z,73.13
2023-03-29T08:44:07.373Z,73.13
2023-03-29T08:45:07.949Z,73.13
2023-03-29T08:46:09.454Z,73.13
2023-03-29T08:47:09.212Z,73.13
2023-03-29T08:48:10.140Z,78.75
2023-03-29T08:49:10.268Z,78.75
2023-03-29T08:50:10.369Z,78.75
2023-03-29T08:51:13.328Z,73.13
2023-03-29T08:52:10.894Z,73.13
2023-03-29T08:53:11.418Z,73.13
2023-03-29T08:54:12.142Z,78.75
2023-03-29T08:55:12.885Z,78.75
2023-03-29T08:56:13.820Z,73.13
2023-03-29T08:57:14.781Z,73.13
2023-03-29T08:58:15.464Z,73.13
2023-03-29T08:59:16.150Z,78.75
2023-03-29T09:00:16.884Z,84.38
2023-03-29T09:01:18.168Z,95.63
2023-03-29T09:02:18.139Z,106.88
2023-03-29T09:03:18.666Z,112.5
2023-03-29T09:04:18.969Z,118.13
2023-03-29T09:05:18.876Z,112.5
2023-03-29T09:06:19.400Z,112.5
2023-03-29T09:07:19.903Z,112.5
2023-03-29T09:08:20.488Z,112.5
2023-03-29T09:09:21.129Z,106.88
2023-03-29T09:10:22.032Z,106.88
2023-03-29T09:11:23.169Z,106.88
2023-03-29T09:12:22.895Z,101.25
2023-03-29T09:13:24.502Z,95.63
2023-03-29T09:14:25.129Z,90
2023-03-29T09:15:25.121Z,84.38
2023-03-29T09:16:26.404Z,78.75
2023-03-29T09:17:26.326Z,78.75
2023-03-29T09:18:27.509Z,73.13
2023-03-29T09:19:27.237Z,67.5
2023-03-29T09:20:27.770Z,67.5
2023-03-29T09:21:28.866Z,67.5
2023-03-29T09:22:29.427Z,67.5
2023-03-29T09:23:30.103Z,73.13
2023-03-29T09:24:30.846Z,84.38
2023-03-29T09:25:34.535Z,95.63
2023-03-29T09:26:32.229Z,106.88
2023-03-29T09:27:33.013Z,118.13
2023-03-29T09:28:33.866Z,123.75
2023-03-29T09:29:33.758Z,129.38
2023-03-29T09:30:34.924Z,135
2023-03-29T09:31:35.378Z,140.63
2023-03-29T09:32:35.466Z,129.38
2023-03-29T09:33:35.399Z,118.13
2023-03-29T09:34:36.164Z,112.5
2023-03-29T09:35:36.890Z,129.38
2023-03-29T09:36:37.811Z,135
2023-03-29T09:37:38.738Z,129.38
2023-03-29T09:38:39.506Z,118.13
2023-03-29T09:39:40.474Z,112.5
2023-03-29T09:40:41.390Z,112.5
2023-03-29T09:41:42.108Z,95.63
2023-03-29T09:42:43.237Z,84.38
2023-03-29T09:43:44.030Z,78.75
2023-03-29T09:44:47.911Z,73.13
2023-03-29T09:45:45.780Z,73.13
2023-03-29T09:46:47.000Z,78.75
2023-03-29T09:47:47.101Z,78.75
2023-03-29T09:48:47.619Z,78.75
2023-03-29T09:49:49.069Z,78.75
2023-03-29T09:50:48.715Z,78.75
2023-03-29T09:51:49.625Z,78.75
2023-03-29T09:52:50.383Z,84.38
2023-03-29T09:53:51.394Z,84.38
2023-03-29T09:54:52.373Z,84.38
2023-03-29T09:55:55.169Z,84.38
2023-03-29T09:56:54.005Z,84.38
2023-03-29T09:57:54.722Z,90
2023-03-29T09:58:55.584Z,101.25
2023-03-29T09:59:56.532Z,112.5
2023-03-29T10:00:57.032Z,118.13
2023-03-29T10:01:58.459Z,118.13
2023-03-29T10:02:58.749Z,123.75
2023-03-29T10:03:58.991Z,140.63
2023-03-29T10:04:58.960Z,151.88
2023-03-29T10:05:59.663Z,157.5
2023-03-29T10:07:00.585Z,163.13
2023-03-29T10:08:01.278Z,174.38
2023-03-29T10:09:03.012Z,180
2023-03-29T10:10:03.190Z,180
2023-03-29T10:11:03.029Z,174.38
2023-03-29T10:12:04.291Z,163.13
2023-03-29T10:13:05.041Z,163.13
2023-03-29T10:14:05.990Z,168.75
2023-03-29T10:15:13.964Z,168.75
2023-03-29T10:16:07.905Z,151.88
2023-03-29T10:17:09.095Z,151.88
2023-03-29T10:18:09.414Z,151.88
2023-03-29T10:19:10.270Z,146.25
2023-03-29T10:20:15.629Z,140.63
2023-03-29T10:21:11.302Z,129.38
2023-03-29T10:22:10.916Z,135
2023-03-29T10:23:11.498Z,146.25
2023-03-29T10:24:12.217Z,168.75
2023-03-29T10:25:12.967Z,191.25
2023-03-29T10:26:13.472Z,191.25
2023-03-29T10:27:14.372Z,208.13
2023-03-29T10:28:15.536Z,230.63
2023-03-29T10:29:16.432Z,275.63
2023-03-29T10:30:16.732Z,337.5
2023-03-29T10:31:18.004Z,461.25
2023-03-29T10:32:18.353Z,286.88
2023-03-29T10:33:18.700Z,365.63
2023-03-29T10:34:18.434Z,365.63
2023-03-29T10:35:19.558Z,253.13
2023-03-29T10:36:20.479Z,230.63
2023-03-29T10:37:20.215Z,258.75
2023-03-29T10:38:20.747Z,303.75
2023-03-29T10:39:22.904Z,270
2023-03-29T10:40:22.608Z,219.38
2023-03-29T10:41:23.162Z,225
2023-03-29T10:42:23.744Z,213.75
2023-03-29T10:43:24.554Z,337.5
2023-03-29T10:44:25.339Z,337.5
2023-03-29T10:45:26.281Z,236.25
2023-03-29T10:46:27.716Z,230.63
2023-03-29T10:47:27.823Z,225
2023-03-29T10:48:28.574Z,247.5
2023-03-29T10:49:29.042Z,241.88
2023-03-29T10:50:29.984Z,225
2023-03-29T10:51:30.927Z,298.13
2023-03-29T10:52:31.660Z,258.75
2023-03-29T10:53:32.214Z,376.88
2023-03-29T10:54:33.122Z,343.13
2023-03-29T10:55:33.437Z,343.13
2023-03-29T10:56:33.175Z,315
2023-03-29T10:57:34.332Z,320.63
2023-03-29T10:58:35.144Z,393.75
2023-03-29T10:59:36.207Z,337.5
2023-03-29T11:00:36.508Z,388.13
2023-03-29T11:01:37.756Z,393.75
2023-03-29T11:02:38.056Z,393.75
2023-03-29T11:03:38.831Z,360
2023-03-29T11:04:38.824Z,388.13
2023-03-29T11:05:39.304Z,309.38
2023-03-29T11:06:40.042Z,326.25
2023-03-29T11:07:40.978Z,455.63
2023-03-29T11:08:42.842Z,421.88
2023-03-29T11:09:42.066Z,461.25
2023-03-29T11:10:42.980Z,247.5
2023-03-29T11:11:43.918Z,247.5
2023-03-29T11:12:44.637Z,382.5
2023-03-29T11:13:45.540Z,472.5
2023-03-29T11:14:46.361Z,455.63
2023-03-29T11:15:47.416Z,241.88
2023-03-29T11:16:46.930Z,236.25
2023-03-29T11:17:48.389Z,253.13
2023-03-29T11:18:48.546Z,286.88
2023-03-29T11:19:49.636Z,315
2023-03-29T11:20:49.538Z,225
2023-03-29T11:21:50.447Z,298.13
2023-03-29T11:22:51.165Z,281.25
2023-03-29T11:23:51.462Z,225
2023-03-29T11:24:52.011Z,208.13
2023-03-29T11:25:52.944Z,225
2023-03-29T11:26:53.859Z,258.75
2023-03-29T11:27:53.955Z,286.88
2023-03-29T11:28:53.676Z,230.63
2023-03-29T11:29:54.397Z,225
2023-03-29T11:30:54.389Z,219.38
2023-03-29T11:31:55.894Z,241.88
2023-03-29T11:32:56.613Z,247.5
2023-03-29T11:33:56.372Z,298.13
2023-03-29T11:34:57.326Z,213.75
2023-03-29T11:35:58.911Z,219.38
2023-03-29T11:36:58.762Z,196.88
2023-03-29T11:37:59.597Z,191.25
2023-03-29T11:39:01.568Z,196.88
2023-03-29T11:40:01.124Z,196.88
2023-03-29T11:41:02.261Z,196.88
2023-03-29T11:42:02.042Z,213.75
2023-03-29T11:43:02.545Z,320.63
2023-03-29T11:44:05.884Z,230.63
2023-03-29T11:45:05.914Z,213.75
2023-03-29T11:46:05.085Z,225
2023-03-29T11:47:05.230Z,241.88
2023-03-29T11:48:05.692Z,236.25
2023-03-29T11:49:05.940Z,275.63
2023-03-29T11:50:06.500Z,258.75
2023-03-29T11:51:07.450Z,303.75
2023-03-29T11:52:08.590Z,264.38
2023-03-29T11:53:08.294Z,236.25
2023-03-29T11:54:09.011Z,202.5
2023-03-29T11:55:09.966Z,202.5
2023-03-29T11:56:10.869Z,196.88
2023-03-29T11:57:11.629Z,202.5
2023-03-29T11:58:12.571Z,264.38
2023-03-29T11:59:12.888Z,241.88
2023-03-29T12:00:13.759Z,253.13
2023-03-29T12:01:14.332Z,298.13
2023-03-29T12:02:14.671Z,264.38
2023-03-29T12:03:15.432Z,258.75
2023-03-29T12:04:16.678Z,253.13
2023-03-29T12:05:15.639Z,253.13
2023-03-29T12:06:16.590Z,348.75
2023-03-29T12:07:17.129Z,241.88
2023-03-29T12:08:17.705Z,264.38
2023-03-29T12:09:21.998Z,270
2023-03-29T12:11:20.767Z,247.5
2023-03-29T12:12:20.769Z,331.88
2023-03-29T12:13:21.515Z,568.13
2023-03-29T12:14:22.620Z,326.25
2023-03-29T12:15:23.624Z,253.13
2023-03-29T12:16:23.950Z,275.63
2023-03-29T12:17:23.483Z,410.63
2023-03-29T12:18:24.748Z,258.75
2023-03-29T12:19:24.868Z,247.5
2023-03-29T12:20:25.229Z,247.5
2023-03-29T12:21:26.156Z,309.38
2023-03-29T12:22:26.925Z,286.88
2023-03-29T12:23:28.053Z,348.75
2023-03-29T12:24:27.980Z,585
2023-03-29T12:25:33.553Z,562.5
2023-03-29T12:26:29.462Z,495
2023-03-29T12:27:29.760Z,309.38
2023-03-29T12:28:30.266Z,286.88
2023-03-29T12:29:30.565Z,253.13
2023-03-29T12:30:33.176Z,225
2023-03-29T12:31:31.730Z,202.5
2023-03-29T12:32:33.170Z,196.88
2023-03-29T12:33:33.474Z,196.88
2023-03-29T12:34:33.400Z,196.88
2023-03-29T12:35:34.243Z,202.5
2023-03-29T12:36:35.526Z,208.13
2023-03-29T12:37:35.691Z,230.63
2023-03-29T12:38:39.419Z,208.13
2023-03-29T12:39:36.943Z,202.5
2023-03-29T12:40:37.368Z,185.63
2023-03-29T12:41:37.916Z,174.38
2023-03-29T12:42:38.651Z,174.38
2023-03-29T12:43:39.626Z,168.75
2023-03-29T12:44:39.733Z,309.38
2023-03-29T12:45:40.812Z,416.25
2023-03-29T12:46:41.041Z,281.25
2023-03-29T12:47:40.781Z,264.38
2023-03-29T12:48:42.070Z,286.88
2023-03-29T12:49:43.046Z,191.25
2023-03-29T12:50:43.876Z,185.63
2023-03-29T12:51:44.594Z,185.63
2023-03-29T12:52:45.095Z,174.38
2023-03-29T12:53:46.031Z,180
2023-03-29T12:54:46.742Z,163.13
2023-03-29T12:55:47.685Z,151.88
2023-03-29T12:56:48.031Z,168.75
2023-03-29T12:57:48.337Z,151.88
2023-03-29T12:58:48.844Z,112.5
2023-03-29T12:59:49.423Z,101.25
2023-03-29T13:00:50.841Z,101.25
2023-03-29T13:01:51.413Z,95.63
2023-03-29T13:02:52.208Z,84.38
2023-03-29T13:03:52.064Z,73.13
2023-03-29T13:04:53.183Z,67.5
2023-03-29T13:05:52.921Z,61.88
2023-03-29T13:06:54.311Z,61.88
2023-03-29T13:07:54.244Z,73.13
2023-03-29T13:08:55.180Z,78.75
2023-03-29T13:09:56.171Z,84.38
2023-03-29T13:10:56.873Z,95.63
2023-03-29T13:11:57.390Z,101.25
2023-03-29T13:12:58.287Z,112.5
2023-03-29T13:13:58.786Z,118.13
2023-03-29T13:14:59.820Z,112.5
2023-03-29T13:16:00.745Z,101.25
2023-03-29T13:17:12.244Z,84.38
2023-03-29T13:18:01.900Z,67.5
2023-03-29T13:19:01.701Z,56.25
2023-03-29T13:20:02.395Z,56.25
2023-03-29T13:21:03.249Z,56.25
2023-03-29T13:22:04.154Z,61.88
2023-03-29T13:23:05.065Z,67.5
2023-03-29T13:24:06.172Z,73.13
2023-03-29T13:25:05.856Z,67.5
2023-03-29T13:26:07.267Z,56.25
2023-03-29T13:27:07.435Z,56.25
2023-03-29T13:28:06.939Z,50.63
2023-03-29T13:29:09.648Z,45
2023-03-29T13:30:08.158Z,45
2023-03-29T13:31:08.856Z,45
2023-03-29T13:32:09.566Z,45
2023-03-29T13:33:10.505Z,45
2023-03-29T13:34:11.348Z,45
2023-03-29T13:35:12.053Z,39.38
2023-03-29T13:36:13.830Z,33.75
2023-03-29T13:37:13.771Z,28.13
2023-03-29T13:38:14.729Z,28.13
2023-03-29T13:39:15.428Z,28.13
2023-03-29T13:40:16.416Z,28.13
2023-03-29T13:41:16.879Z,28.13
2023-03-29T13:42:17.202Z,33.75
2023-03-29T13:43:17.906Z,33.75
2023-03-29T13:44:18.436Z,39.38
2023-03-29T13:45:18.943Z,39.38
2023-03-29T13:46:20.382Z,39.38
2023-03-29T13:47:20.034Z,39.38
2023-03-29T13:48:22.426Z,39.38
2023-03-29T13:49:21.639Z,45
2023-03-29T13:50:21.688Z,56.25
2023-03-29T13:51:22.274Z,61.88
2023-03-29T13:52:23.404Z,67.5
2023-03-29T13:53:23.108Z,67.5
2023-03-29T13:54:24.018Z,73.13